Loch Sheldrake, New York
Current Conditions -  °F | °C
As of 10:15 PM on Monday 26 Jan 2015 (Local Time) from KMSV Reporting Station
Overcast Overcast  
Wind Chill: 11°   Ceiling: 6500
Heat Index: 21°   Visibility: 10mi
Dew Point: 16°   Wind: 9mph
Humidity: 80%   Direction: 70°ENE
Pressure: 29.77"   Gusts: 16mph
Location:  41.77°N, 74.66°W
Report Text: KMSV 270315Z AUTO 07008G14KT 10SM OVC065 M06/M09 A2977 RMK AO1
Loading
Personal Weather Stations






























Interactive Weather Map New forecast layout! Learn more

10-Day Weather Forecast

Advertisements
Track Severe Weather on mobile